createdAt,value
2022-10-20T00:01:26.953Z,48.53
2022-10-20T00:03:56.761Z,51.33
2022-10-20T00:06:27.036Z,260.53
2022-10-20T00:09:16.218Z,139.77
2022-10-20T00:11:46.191Z,108.73
2022-10-20T00:14:15.081Z,204.77
2022-10-20T00:16:43.830Z,46.83
2022-10-20T00:19:13.151Z,68.43
2022-10-20T00:21:42.032Z,321.50
2022-10-20T00:24:10.783Z,298.20
2022-10-20T00:26:40.949Z,108.63
2022-10-20T00:29:10.047Z,240.13
2022-10-20T00:31:38.822Z,223.50
2022-10-20T00:34:07.597Z,297.73
2022-10-20T00:36:36.658Z,374.23
2022-10-20T00:39:07.553Z,115.87
2022-10-20T00:41:36.703Z,123.03
2022-10-20T00:44:38.775Z,60.33
2022-10-20T00:47:12.051Z,147.00
2022-10-20T00:49:41.663Z,277.90
2022-10-20T00:52:11.556Z,76.50
2022-10-20T00:54:40.423Z,71.57
2022-10-20T00:57:09.349Z,105.70
2022-10-20T00:59:39.602Z,209.87
2022-10-20T01:02:11.593Z,349.77
2022-10-20T01:04:58.956Z,377.53
2022-10-20T01:07:27.748Z,43.87
2022-10-20T01:09:57.002Z,351.97
2022-10-20T01:12:35.169Z,51.30
2022-10-20T01:15:10.615Z,257.70
2022-10-20T01:17:50.474Z,123.27
2022-10-20T01:20:47.190Z,219.47
2022-10-20T01:23:58.147Z,41.93
2022-10-20T01:26:53.411Z,154.50
2022-10-20T01:29:31.132Z,80.53
2022-10-20T01:32:10.880Z,36.87
2022-10-20T01:34:48.069Z,43.90
2022-10-20T01:37:34.536Z,262.47
2022-10-20T01:40:23.292Z,42.93
2022-10-20T01:42:54.292Z,352.13
2022-10-20T01:45:28.705Z,286.03
2022-10-20T01:47:59.835Z,79.00
2022-10-20T01:50:30.106Z,146.27
2022-10-20T01:52:59.725Z,92.93
2022-10-20T01:55:28.653Z,338.40
2022-10-20T01:58:21.334Z,542.27
2022-10-20T02:01:18.851Z,138.73
2022-10-20T02:03:54.777Z,130.80
2022-10-20T02:06:36.829Z,583.60
2022-10-20T02:09:08.613Z,54.00
2022-10-20T02:12:01.290Z,60.13
2022-10-20T02:14:33.368Z,526.97
2022-10-20T02:17:08.006Z,42.37
2022-10-20T02:19:40.717Z,534.43
2022-10-20T02:22:11.262Z,359.23
2022-10-20T02:24:41.836Z,67.07
2022-10-20T02:27:31.905Z,122.33
2022-10-20T02:30:03.963Z,265.93
2022-10-20T02:32:35.801Z,64.77
2022-10-20T02:35:06.829Z,583.67
2022-10-20T02:37:36.512Z,114.57
2022-10-20T02:40:06.576Z,712.53
2022-10-20T02:42:35.942Z,61.73
2022-10-20T02:45:05.292Z,71.17
2022-10-20T02:47:36.000Z,86.47
2022-10-20T02:50:05.237Z,299.60
2022-10-20T02:52:34.180Z,51.63
2022-10-20T02:55:03.000Z,567.77
2022-10-20T02:57:31.979Z,643.63
2022-10-20T03:00:00.818Z,688.20
2022-10-20T03:02:29.596Z,607.70
2022-10-20T03:04:59.827Z,311.97
2022-10-20T03:07:28.769Z,551.23
2022-10-20T03:09:57.515Z,301.97
2022-10-20T03:12:28.890Z,155.80
2022-10-20T03:15:19.124Z,103.30
2022-10-20T03:17:47.994Z,536.53
2022-10-20T03:20:18.467Z,148.10
2022-10-20T03:22:47.363Z,557.90
2022-10-20T03:25:16.615Z,90.70
2022-10-20T03:27:45.361Z,84.30
2022-10-20T03:30:14.435Z,244.27
2022-10-20T03:32:43.285Z,281.07
2022-10-20T03:35:12.082Z,289.20
2022-10-20T03:37:42.423Z,57.97
2022-10-20T03:40:11.927Z,321.13
2022-10-20T03:42:40.661Z,381.00
2022-10-20T03:45:11.769Z,64.70
2022-10-20T03:47:42.544Z,425.50
2022-10-20T03:50:11.934Z,350.10
2022-10-20T03:52:42.048Z,612.37
2022-10-20T03:55:11.384Z,259.93
2022-10-20T03:57:40.111Z,544.00
2022-10-20T04:00:09.810Z,61.03
2022-10-20T04:02:43.793Z,47.80
2022-10-20T04:05:15.310Z,80.43
2022-10-20T04:07:45.916Z,55.87
2022-10-20T04:10:16.042Z,56.47
2022-10-20T04:12:45.079Z,97.23
2022-10-20T04:15:14.073Z,52.83
2022-10-20T04:17:42.948Z,170.03
2022-10-20T04:20:12.109Z,511.80
2022-10-20T04:22:40.899Z,456.57
2022-10-20T04:25:12.463Z,71.60
2022-10-20T04:27:41.471Z,573.03
2022-10-20T04:30:11.569Z,163.37
2022-10-20T04:32:40.688Z,374.23
2022-10-20T04:35:10.558Z,241.43
2022-10-20T04:37:39.876Z,773.73
2022-10-20T04:40:11.611Z,509.77
2022-10-20T04:42:40.693Z,86.80
2022-10-20T04:45:10.516Z,562.13
2022-10-20T04:47:39.725Z,73.30
2022-10-20T04:50:09.420Z,70.57
2022-10-20T04:52:38.402Z,280.33
2022-10-20T04:55:08.043Z,201.30
2022-10-20T04:57:38.566Z,601.00
2022-10-20T05:00:08.796Z,66.37
2022-10-20T05:02:37.664Z,353.53
2022-10-20T05:05:07.133Z,100.30
2022-10-20T05:07:36.230Z,551.37
2022-10-20T05:10:05.965Z,80.97
2022-10-20T05:12:35.146Z,803.73
2022-10-20T05:15:06.259Z,418.23
2022-10-20T05:17:53.691Z,64.57
2022-10-20T05:20:22.569Z,455.17
2022-10-20T05:22:51.506Z,533.57
2022-10-20T05:25:36.839Z,861.93
2022-10-20T05:28:06.567Z,82.17
2022-10-20T05:30:37.728Z,69.77
2022-10-20T05:33:06.835Z,80.97
2022-10-20T05:35:35.653Z,98.13
2022-10-20T05:38:04.507Z,197.77
2022-10-20T05:40:33.315Z,236.30
2022-10-20T05:43:02.145Z,457.97
2022-10-20T05:45:31.016Z,118.90
2022-10-20T05:48:01.239Z,294.77
2022-10-20T05:50:30.094Z,96.07
2022-10-20T05:52:58.973Z,99.83
2022-10-20T05:55:27.847Z,113.27
2022-10-20T05:57:56.611Z,460.93
2022-10-20T06:00:31.198Z,700.50
2022-10-20T06:03:02.088Z,127.83
2022-10-20T06:05:31.061Z,262.53
2022-10-20T06:08:00.070Z,107.23
2022-10-20T06:10:29.002Z,749.67
2022-10-20T06:12:57.833Z,111.53
2022-10-20T06:15:26.659Z,600.67
2022-10-20T06:17:55.435Z,136.03
2022-10-20T06:20:25.707Z,147.60
2022-10-20T06:22:54.589Z,217.83
2022-10-20T06:25:23.414Z,172.00
2022-10-20T06:27:52.247Z,822.80
2022-10-20T06:30:21.342Z,145.77
2022-10-20T06:32:54.617Z,154.10
2022-10-20T06:35:24.760Z,152.60
2022-10-20T06:37:53.629Z,170.33
2022-10-20T06:40:22.730Z,122.27
2022-10-20T06:42:52.118Z,622.87
2022-10-20T06:45:20.992Z,677.53
2022-10-20T06:47:49.939Z,242.73
2022-10-20T06:50:18.904Z,459.97
2022-10-20T06:52:49.061Z,695.27
2022-10-20T06:55:17.963Z,829.73
2022-10-20T06:57:46.944Z,86.63
2022-10-20T07:00:16.569Z,91.50
2022-10-20T07:02:45.481Z,97.70
2022-10-20T07:05:14.385Z,88.90
2022-10-20T07:07:43.194Z,95.23
2022-10-20T07:10:13.764Z,95.13
2022-10-20T07:12:42.920Z,105.37
2022-10-20T07:15:12.860Z,201.17
2022-10-20T07:17:41.699Z,496.07
2022-10-20T07:20:11.438Z,647.67
2022-10-20T07:22:40.255Z,789.37
2022-10-20T07:25:10.039Z,71.43
2022-10-20T07:27:40.385Z,74.20
2022-10-20T07:30:09.851Z,594.53
2022-10-20T07:32:38.988Z,238.23
2022-10-20T07:35:08.602Z,618.17
2022-10-20T07:37:37.706Z,625.27
2022-10-20T07:40:07.784Z,855.90
2022-10-20T07:42:36.771Z,739.80
2022-10-20T07:45:09.054Z,787.73
2022-10-20T07:47:38.433Z,146.53
2022-10-20T07:50:10.874Z,154.90
2022-10-20T07:52:39.888Z,716.27
2022-10-20T07:55:17.927Z,195.23
2022-10-20T07:57:58.163Z,660.93
2022-10-20T08:00:28.696Z,515.93
2022-10-20T08:03:16.216Z,362.13
2022-10-20T08:05:45.023Z,837.43
2022-10-20T08:08:32.589Z,862.97
2022-10-20T08:11:01.740Z,750.57
2022-10-20T08:13:31.550Z,659.93
2022-10-20T08:16:07.691Z,188.33
2022-10-20T08:18:53.724Z,97.90
2022-10-20T08:21:23.820Z,792.93
2022-10-20T08:23:53.018Z,44.30
2022-10-20T08:26:23.546Z,48.63
2022-10-20T08:28:54.240Z,151.07
2022-10-20T08:31:24.548Z,57.90
2022-10-20T08:34:12.180Z,41.80
2022-10-20T08:36:41.101Z,34.83
2022-10-20T08:39:10.047Z,613.33
2022-10-20T08:42:06.472Z,150.30
2022-10-20T08:44:36.128Z,816.50
2022-10-20T08:47:15.718Z,319.67
2022-10-20T08:49:47.995Z,89.57
2022-10-20T08:52:18.091Z,836.47
2022-10-20T08:54:49.245Z,43.37
2022-10-20T08:57:37.838Z,40.77
2022-10-20T09:00:17.110Z,907.80
2022-10-20T09:02:49.314Z,875.00
2022-10-20T09:05:22.473Z,27.70
2022-10-20T09:07:51.621Z,39.90
2022-10-20T09:10:27.822Z,396.77
2022-10-20T09:12:57.015Z,640.63
2022-10-20T09:15:27.447Z,1017.27
2022-10-20T09:18:01.498Z,830.37
2022-10-20T09:20:35.191Z,908.60
2022-10-20T09:23:07.798Z,920.90
2022-10-20T09:25:42.444Z,31.30
2022-10-20T09:28:23.225Z,215.33
2022-10-20T09:30:52.498Z,54.30
2022-10-20T09:33:32.843Z,101.13
2022-10-20T09:36:06.398Z,168.33
2022-10-20T09:38:36.735Z,581.33
2022-10-20T09:41:12.818Z,1008.93
2022-10-20T09:43:48.960Z,1092.47
2022-10-20T09:46:22.334Z,723.03
2022-10-20T09:48:53.051Z,911.40
2022-10-20T09:51:25.038Z,359.53
2022-10-20T09:53:59.203Z,825.70
2022-10-20T09:56:30.185Z,95.27
2022-10-20T09:59:00.777Z,505.13
2022-10-20T10:01:30.148Z,588.47
2022-10-20T10:04:02.214Z,828.37
2022-10-20T10:06:41.979Z,822.97
2022-10-20T10:09:34.364Z,1017.00
2022-10-20T10:12:05.914Z,929.97
2022-10-20T10:14:36.755Z,1054.23
2022-10-20T10:17:05.947Z,439.17
2022-10-20T10:19:36.880Z,1059.03
2022-10-20T10:22:05.976Z,1051.07
2022-10-20T10:24:44.258Z,1064.90
2022-10-20T10:27:26.021Z,96.30
2022-10-20T10:30:29.016Z,673.57
2022-10-20T10:32:58.517Z,973.97
2022-10-20T10:35:32.492Z,1103.10
2022-10-20T10:38:02.152Z,951.20
2022-10-20T10:40:36.862Z,847.07
2022-10-20T10:43:29.658Z,994.57
2022-10-20T10:45:59.905Z,1009.47
2022-10-20T10:49:06.799Z,1107.43
2022-10-20T10:51:50.215Z,1139.10
2022-10-20T10:54:37.385Z,1135.90
2022-10-20T10:57:16.461Z,1048.13
2022-10-20T10:59:48.257Z,1017.57
2022-10-20T11:02:45.553Z,813.13
2022-10-20T11:05:31.513Z,1124.53
2022-10-20T11:08:14.968Z,593.47
2022-10-20T11:10:53.452Z,1016.33
2022-10-20T11:13:32.175Z,91.10
2022-10-20T11:16:16.559Z,649.17
2022-10-20T11:19:12.173Z,1009.80
2022-10-20T11:21:51.492Z,1004.83
2022-10-20T11:24:35.758Z,1109.83
2022-10-20T11:27:10.186Z,446.73
2022-10-20T11:29:43.323Z,392.97
2022-10-20T11:32:25.837Z,369.00
2022-10-20T11:35:23.877Z,1093.73
2022-10-20T11:37:58.317Z,1094.73
2022-10-20T11:40:32.302Z,750.63
2022-10-20T11:43:10.979Z,932.27
2022-10-20T11:45:48.439Z,1083.17
2022-10-20T11:48:22.684Z,1055.43
2022-10-20T11:51:06.486Z,993.13
2022-10-20T11:53:48.289Z,1084.50
2022-10-20T11:56:53.550Z,365.27
2022-10-20T11:59:54.774Z,801.83
2022-10-20T12:02:59.850Z,976.00
2022-10-20T12:05:49.298Z,424.17
2022-10-20T12:08:39.660Z,958.13
2022-10-20T12:11:16.799Z,436.73
2022-10-20T12:13:59.659Z,506.87
2022-10-20T12:17:05.410Z,106.27
2022-10-20T12:19:35.870Z,760.60
2022-10-20T12:22:07.188Z,930.07
2022-10-20T12:25:35.078Z,990.57
2022-10-20T12:28:35.541Z,917.47
2022-10-20T12:31:06.998Z,381.33
2022-10-20T12:33:42.844Z,983.87
2022-10-20T12:36:31.176Z,898.80
2022-10-20T12:39:21.674Z,761.80
2022-10-20T12:41:59.960Z,938.07
2022-10-20T12:44:32.201Z,977.83
2022-10-20T12:47:08.238Z,967.10
2022-10-20T12:49:39.124Z,155.90
2022-10-20T12:52:10.017Z,178.40
2022-10-20T12:54:46.182Z,705.90
2022-10-20T12:57:35.811Z,956.60
2022-10-20T13:00:08.039Z,933.93
2022-10-20T13:02:50.674Z,973.00
2022-10-20T13:05:44.994Z,689.23
2022-10-20T13:08:35.289Z,688.23
2022-10-20T13:11:37.821Z,887.03
2022-10-20T13:14:43.473Z,433.27
2022-10-20T13:17:38.747Z,714.23
2022-10-20T13:20:39.700Z,932.60
2022-10-20T13:23:12.355Z,923.90
2022-10-20T13:25:45.142Z,870.27
2022-10-20T13:28:21.638Z,405.57
2022-10-20T13:31:12.893Z,472.30
2022-10-20T13:34:03.996Z,713.50
2022-10-20T13:36:56.456Z,21.23
2022-10-20T13:39:33.773Z,294.73
2022-10-20T13:42:34.290Z,920.13
2022-10-20T13:45:12.926Z,892.53
2022-10-20T13:47:50.624Z,598.10
2022-10-20T13:50:23.957Z,945.40
2022-10-20T13:52:57.592Z,41.80
2022-10-20T13:55:29.660Z,614.97
2022-10-20T13:58:05.282Z,953.13
2022-10-20T14:00:36.553Z,902.13
2022-10-20T14:03:16.284Z,545.50
2022-10-20T14:05:45.167Z,857.97
2022-10-20T14:08:22.531Z,823.80
2022-10-20T14:10:56.058Z,620.90
2022-10-20T14:13:27.500Z,90.50
2022-10-20T14:15:58.453Z,107.27
2022-10-20T14:18:29.934Z,120.13
2022-10-20T14:21:19.329Z,87.97
2022-10-20T14:23:50.980Z,108.23
2022-10-20T14:26:22.147Z,135.30
2022-10-20T14:28:52.644Z,164.50
2022-10-20T14:31:24.136Z,385.07
2022-10-20T14:33:54.623Z,371.27
2022-10-20T14:39:05.894Z,451.90
2022-10-20T14:41:37.016Z,748.53
2022-10-20T14:47:16.464Z,506.40
2022-10-20T14:49:51.533Z,117.70
2022-10-20T14:52:23.754Z,447.20
2022-10-20T14:54:54.186Z,141.67
2022-10-20T14:57:42.043Z,351.43
2022-10-20T15:00:29.052Z,596.93
2022-10-20T15:03:00.571Z,254.17
2022-10-20T15:05:42.056Z,370.07
2022-10-20T15:08:18.806Z,288.03
2022-10-20T15:10:49.155Z,365.43
2022-10-20T15:13:26.676Z,913.63
2022-10-20T15:15:57.959Z,432.80
2022-10-20T15:18:27.077Z,496.83
2022-10-20T15:20:56.885Z,173.73
2022-10-20T15:23:27.981Z,642.43
2022-10-20T15:26:01.597Z,689.93
2022-10-20T15:28:37.943Z,940.60
2022-10-20T15:31:09.044Z,546.60
2022-10-20T15:33:37.935Z,906.53
2022-10-20T15:36:15.364Z,872.87
2022-10-20T15:38:44.780Z,765.53
2022-10-20T15:41:17.682Z,903.83
2022-10-20T15:43:47.103Z,356.27
2022-10-20T15:46:17.131Z,755.33
2022-10-20T15:48:46.663Z,546.23
2022-10-20T15:51:22.180Z,568.33
2022-10-20T15:53:51.724Z,12.10
2022-10-20T15:56:22.223Z,20.37
2022-10-20T15:58:51.630Z,22.80
2022-10-20T16:01:22.542Z,11.73
2022-10-20T16:03:51.870Z,15.30
2022-10-20T16:06:20.913Z,19.03
2022-10-20T16:08:51.299Z,23.50
2022-10-20T16:11:22.443Z,20.30
2022-10-20T16:13:51.445Z,13.30
2022-10-20T16:16:21.245Z,21.87
2022-10-20T16:18:50.165Z,18.17
2022-10-20T16:21:37.576Z,23.63
2022-10-20T16:24:06.691Z,19.47
2022-10-20T16:26:37.188Z,15.93
2022-10-20T16:29:05.984Z,21.37
2022-10-20T16:31:34.909Z,19.50
2022-10-20T16:34:03.863Z,23.40
2022-10-20T16:36:32.825Z,16.47
2022-10-20T16:39:01.909Z,71.23
2022-10-20T16:41:30.866Z,101.57
2022-10-20T16:44:01.490Z,62.63
2022-10-20T16:46:30.617Z,182.50
2022-10-20T16:48:59.514Z,301.93
2022-10-20T16:51:28.471Z,33.07
2022-10-20T16:54:02.893Z,196.67
2022-10-20T16:56:32.336Z,514.07
2022-10-20T16:59:03.094Z,426.40
2022-10-20T17:01:32.307Z,228.97
2022-10-20T17:04:01.180Z,82.33
2022-10-20T17:06:30.465Z,72.87
2022-10-20T17:09:01.069Z,82.47
2022-10-20T17:11:31.722Z,31.17
2022-10-20T17:14:20.380Z,283.17
2022-10-20T17:16:49.663Z,654.00
2022-10-20T17:19:18.930Z,395.07
2022-10-20T17:21:50.252Z,26.80
2022-10-20T17:24:21.598Z,19.40
2022-10-20T17:26:50.404Z,19.73
2022-10-20T17:29:23.656Z,17.87
2022-10-20T17:31:54.285Z,19.23
2022-10-20T17:34:23.149Z,11.77
2022-10-20T17:36:51.958Z,17.60
2022-10-20T17:39:22.368Z,20.17
2022-10-20T17:41:51.271Z,19.23
2022-10-20T17:44:21.607Z,17.93
2022-10-20T17:46:50.404Z,13.57
2022-10-20T17:49:19.357Z,13.17
2022-10-20T17:51:48.058Z,11.70
2022-10-20T17:54:17.105Z,16.97
2022-10-20T17:56:47.720Z,17.47
2022-10-20T17:59:16.600Z,8.60
2022-10-20T18:01:46.862Z,8.37
2022-10-20T18:04:17.568Z,16.13
2022-10-20T18:06:46.960Z,24.97
2022-10-20T18:09:17.922Z,16.57
2022-10-20T18:11:48.957Z,17.93
2022-10-20T18:14:18.366Z,15.93
2022-10-20T18:16:49.101Z,15.70
2022-10-20T18:19:20.074Z,6.07
2022-10-20T18:21:49.416Z,12.23
2022-10-20T18:24:19.614Z,10.40
2022-10-20T18:26:48.842Z,10.53
2022-10-20T18:29:18.635Z,9.93
2022-10-20T18:31:51.455Z,10.33
2022-10-20T18:34:21.871Z,10.53
2022-10-20T18:36:51.702Z,11.67
2022-10-20T18:39:20.568Z,9.93
2022-10-20T18:41:52.438Z,19.10
2022-10-20T18:44:21.643Z,12.43
2022-10-20T18:46:57.611Z,10.70
2022-10-20T18:49:26.931Z,13.57
2022-10-20T18:51:55.730Z,15.80
2022-10-20T18:54:24.990Z,18.87
2022-10-20T18:56:54.730Z,19.67
2022-10-20T18:59:23.705Z,15.50
2022-10-20T19:01:57.187Z,14.23
2022-10-20T19:04:26.253Z,13.40
2022-10-20T19:06:55.239Z,15.77
2022-10-20T19:09:24.262Z,14.27
2022-10-20T19:11:53.096Z,25.07
2022-10-20T19:14:21.919Z,21.17
2022-10-20T19:16:51.231Z,25.40
2022-10-20T19:19:22.939Z,20.43
2022-10-20T19:21:51.897Z,14.47
2022-10-20T19:24:23.140Z,15.67
2022-10-20T19:27:02.483Z,15.30
2022-10-20T19:29:43.151Z,16.80
2022-10-20T19:32:13.994Z,29.43
2022-10-20T19:34:44.203Z,19.83
2022-10-20T19:37:13.055Z,14.30
2022-10-20T19:39:43.799Z,19.87
2022-10-20T19:42:13.985Z,89.70
2022-10-20T19:44:43.242Z,120.03
2022-10-20T19:47:12.886Z,33.30
2022-10-20T19:49:45.380Z,328.37
2022-10-20T19:52:15.777Z,13.97
2022-10-20T19:54:44.970Z,8.83
2022-10-20T19:57:13.846Z,10.37
2022-10-20T19:59:42.649Z,8.13
2022-10-20T20:02:13.287Z,14.23
2022-10-20T20:04:42.300Z,10.23
2022-10-20T20:07:11.428Z,16.80
2022-10-20T20:09:41.864Z,37.93
2022-10-20T20:12:10.775Z,20.33
2022-10-20T20:14:39.686Z,19.13
2022-10-20T20:17:10.919Z,10.53
2022-10-20T20:19:40.830Z,17.70
2022-10-20T20:22:09.707Z,13.60
2022-10-20T20:24:39.479Z,12.00
2022-10-20T20:27:12.631Z,5.63
2022-10-20T20:29:41.605Z,11.57
2022-10-20T20:32:10.390Z,5.70
2022-10-20T20:34:39.316Z,4.93
2022-10-20T20:37:08.236Z,7.03
2022-10-20T20:39:37.081Z,5.87
2022-10-20T20:42:06.014Z,9.27
2022-10-20T20:44:36.258Z,6.27
2022-10-20T20:47:05.145Z,10.30
2022-10-20T20:49:33.979Z,6.53
2022-10-20T20:52:02.824Z,5.83
2022-10-20T20:54:33.214Z,12.73
2022-10-20T20:57:02.312Z,26.40
2022-10-20T20:59:31.185Z,25.50
2022-10-20T21:02:01.483Z,34.80
2022-10-20T21:04:30.829Z,27.63
2022-10-20T21:07:18.289Z,31.80
2022-10-20T21:09:47.079Z,23.53
2022-10-20T21:12:16.170Z,16.33
2022-10-20T21:14:45.031Z,10.33
2022-10-20T21:17:15.229Z,11.40
2022-10-20T21:19:44.108Z,12.90
2022-10-20T21:22:12.994Z,23.50
2022-10-20T21:24:41.825Z,32.73
2022-10-20T21:27:10.914Z,30.40
2022-10-20T21:29:44.142Z,23.63
2022-10-20T21:32:18.628Z,15.13
2022-10-20T21:35:06.818Z,14.30
2022-10-20T21:37:35.762Z,12.00
2022-10-20T21:40:05.084Z,12.13
2022-10-20T21:42:34.266Z,9.07
2022-10-20T21:45:03.236Z,8.77
2022-10-20T21:47:33.438Z,6.40
2022-10-20T21:50:02.375Z,5.90
2022-10-20T21:52:31.189Z,8.47
2022-10-20T21:54:59.918Z,9.60
2022-10-20T21:57:28.767Z,5.63
2022-10-20T21:59:57.528Z,6.67
2022-10-20T22:02:26.242Z,9.13
2022-10-20T22:04:56.515Z,6.67
2022-10-20T22:07:25.428Z,8.43
2022-10-20T22:09:54.431Z,11.20
2022-10-20T22:12:23.307Z,14.07
2022-10-20T22:14:52.137Z,10.67
2022-10-20T22:17:21.386Z,8.23
2022-10-20T22:19:50.737Z,6.43
2022-10-20T22:22:21.048Z,4.07
2022-10-20T22:25:25.736Z,7.10
2022-10-20T22:27:55.371Z,5.60
2022-10-20T22:30:24.334Z,4.47
2022-10-20T22:32:53.097Z,5.03
2022-10-20T22:35:21.894Z,7.30
2022-10-20T22:37:52.264Z,4.83
2022-10-20T22:40:21.392Z,4.80
2022-10-20T22:42:50.133Z,6.23
2022-10-20T22:45:19.059Z,5.93
2022-10-20T22:47:48.009Z,6.13
2022-10-20T22:50:17.002Z,4.73
2022-10-20T22:52:46.113Z,8.47
2022-10-20T22:55:16.478Z,8.63
2022-10-20T22:57:49.095Z,7.40
2022-10-20T23:00:19.638Z,4.57
2022-10-20T23:02:48.592Z,4.53
2022-10-20T23:05:17.618Z,9.43
2022-10-20T23:07:46.439Z,6.50
2022-10-20T23:10:16.836Z,4.87
2022-10-20T23:12:45.706Z,9.37
2022-10-20T23:15:14.557Z,8.87
2022-10-20T23:17:43.398Z,22.70
2022-10-20T23:20:12.949Z,6.50
2022-10-20T23:22:41.893Z,8.03
2022-10-20T23:25:11.120Z,9.23
2022-10-20T23:27:41.478Z,5.53
2022-10-20T23:30:28.967Z,4.53
2022-10-20T23:32:57.782Z,4.57
2022-10-20T23:35:26.595Z,4.03
2022-10-20T23:37:55.466Z,10.00
2022-10-20T23:40:24.176Z,7.40
2022-10-20T23:42:54.427Z,12.23
2022-10-20T23:45:23.368Z,7.90
2022-10-20T23:47:52.085Z,8.03
2022-10-20T23:50:23.642Z,11.97
2022-10-20T23:52:53.607Z,8.83
2022-10-20T23:55:22.579Z,9.20
2022-10-20T23:57:51.779Z,5.53
